createdAt,value
2022-12-14T00:01:28.018Z,97319.81
2022-12-14T00:03:56.294Z,97306.81
2022-12-14T00:06:26.871Z,97309.91
2022-12-14T00:08:57.375Z,97312.28
2022-12-14T00:11:24.703Z,97306.97
2022-12-14T00:13:55.020Z,97303.72
2022-12-14T00:16:23.120Z,97305.31
2022-12-14T00:18:53.306Z,97303.94
2022-12-14T00:21:20.705Z,97297.97
2022-12-14T00:23:50.295Z,97292.72
2022-12-14T00:26:21.711Z,97291.31
2022-12-14T00:28:50.896Z,97282.69
2022-12-14T00:31:17.763Z,97282.50
2022-12-14T00:33:45.156Z,97285.06
2022-12-14T00:36:13.436Z,97279.94
2022-12-14T00:38:41.122Z,97277.44
2022-12-14T00:41:08.782Z,97278.91
2022-12-14T00:43:35.708Z,97273.78
2022-12-14T00:46:02.349Z,97274.69
2022-12-14T00:48:29.946Z,97279.59
2022-12-14T00:50:57.635Z,97284.28
2022-12-14T00:53:24.578Z,97273.44
2022-12-14T00:55:51.521Z,97263.75
2022-12-14T00:58:22.487Z,97272.78
2022-12-14T01:01:04.441Z,97268.22
2022-12-14T01:03:31.822Z,97277.56
2022-12-14T01:05:58.803Z,97272.25
2022-12-14T01:08:25.412Z,97271.22
2022-12-14T01:10:53.053Z,97267.72
2022-12-14T01:13:19.543Z,97270.81
2022-12-14T01:15:46.860Z,97261.94
2022-12-14T01:18:13.534Z,97254.81
2022-12-14T01:20:40.017Z,97245.53
2022-12-14T01:23:06.657Z,97242.22
2022-12-14T01:25:33.173Z,97252.41
2022-12-14T01:27:59.687Z,97244.47
2022-12-14T01:30:26.180Z,97231.31
2022-12-14T01:32:52.729Z,97233.56
2022-12-14T01:35:19.169Z,97227.34
2022-12-14T01:37:45.636Z,97229.94
2022-12-14T01:40:15.695Z,97215.47
2022-12-14T01:42:42.195Z,97200.94
2022-12-14T01:45:20.117Z,97203.25
2022-12-14T01:47:55.910Z,97204.63
2022-12-14T01:50:31.564Z,97196.75
2022-12-14T01:53:05.213Z,97193.88
2022-12-14T01:55:41.675Z,97199.53
2022-12-14T01:58:24.772Z,97191.25
2022-12-14T02:00:59.317Z,97177.44
2022-12-14T02:03:38.456Z,97162.50
2022-12-14T02:06:11.781Z,97168.16
2022-12-14T02:08:41.805Z,97167.44
2022-12-14T02:11:08.297Z,97165.50
2022-12-14T02:13:40.498Z,97160.06
2022-12-14T02:16:07.644Z,97154.06
2022-12-14T02:18:34.382Z,97152.22
2022-12-14T02:21:21.445Z,97143.66
2022-12-14T02:24:45.929Z,97142.09
2022-12-14T02:27:54.404Z,97130.03
2022-12-14T02:30:28.139Z,97135.81
2022-12-14T02:33:40.933Z,97135.81
2022-12-14T02:36:51.701Z,97121.91
2022-12-14T02:39:41.028Z,97115.88
2022-12-14T02:42:17.050Z,97116.91
2022-12-14T02:45:25.909Z,97106.19
2022-12-14T02:48:01.501Z,97101.59
2022-12-14T02:50:44.164Z,97102.34
2022-12-14T02:53:29.247Z,97100.03
2022-12-14T02:56:04.086Z,97092.66
2022-12-14T02:58:40.555Z,97091.44
2022-12-14T03:01:16.526Z,97083.75
2022-12-14T03:03:43.139Z,97081.38
2022-12-14T03:06:25.833Z,97078.44
2022-12-14T03:09:04.805Z,97076.09
2022-12-14T03:11:45.778Z,97079.56
2022-12-14T03:14:27.185Z,97084.25
2022-12-14T03:16:56.891Z,97084.66
2022-12-14T03:19:38.774Z,97068.00
2022-12-14T03:22:20.300Z,97055.09
2022-12-14T03:24:53.981Z,97046.94
2022-12-14T03:27:30.375Z,97049.63
2022-12-14T03:30:07.667Z,97057.25
2022-12-14T03:32:40.357Z,97051.72
2022-12-14T03:35:16.179Z,97043.34
2022-12-14T03:37:56.492Z,97040.00
2022-12-14T03:41:10.043Z,97030.75
2022-12-14T03:44:07.382Z,97025.72
2022-12-14T03:46:49.289Z,97029.72
2022-12-14T03:49:46.496Z,97020.59
2022-12-14T03:52:26.373Z,97031.78
2022-12-14T03:55:59.015Z,97029.88
2022-12-14T03:58:56.893Z,97030.13
2022-12-14T04:01:41.332Z,97028.84
2022-12-14T04:04:38.709Z,97026.63
2022-12-14T04:07:24.470Z,97021.16
2022-12-14T04:10:27.993Z,97023.72
2022-12-14T04:13:24.790Z,97035.59
2022-12-14T04:16:15.757Z,97041.47
2022-12-14T04:19:00.283Z,97036.72
2022-12-14T04:21:47.919Z,97028.56
2022-12-14T04:24:44.847Z,97030.28
2022-12-14T04:27:23.699Z,97026.69
2022-12-14T04:29:57.651Z,97025.53
2022-12-14T04:32:33.645Z,97005.25
2022-12-14T04:35:22.117Z,97011.31
2022-12-14T04:37:57.603Z,97009.59
2022-12-14T04:40:36.381Z,96993.63
2022-12-14T04:43:13.966Z,96992.25
2022-12-14T04:45:51.068Z,96990.88
2022-12-14T04:48:32.069Z,96991.94
2022-12-14T04:51:12.495Z,96997.69
2022-12-14T04:53:43.298Z,97003.44
2022-12-14T04:56:43.708Z,96995.88
2022-12-14T04:59:10.385Z,96988.91
2022-12-14T05:02:04.676Z,96985.50
2022-12-14T05:05:05.231Z,96974.03
2022-12-14T05:07:52.549Z,96973.97
2022-12-14T05:10:42.358Z,96978.09
2022-12-14T05:13:18.396Z,96986.19
2022-12-14T05:15:54.091Z,96982.47
2022-12-14T05:18:22.201Z,96977.63
2022-12-14T05:20:49.316Z,96986.97
2022-12-14T05:23:16.951Z,96981.69
2022-12-14T05:25:44.067Z,96985.72
2022-12-14T05:28:11.744Z,96978.97
2022-12-14T05:30:38.802Z,96971.88
2022-12-14T05:33:05.653Z,96970.13
2022-12-14T05:35:32.110Z,96960.78
2022-12-14T05:37:58.681Z,96958.97
2022-12-14T05:40:25.196Z,96961.88
2022-12-14T05:42:55.762Z,96964.13
2022-12-14T05:45:22.591Z,96956.16
2022-12-14T05:47:49.074Z,96955.22
2022-12-14T05:50:15.689Z,96943.06
2022-12-14T05:52:42.165Z,96939.50
2022-12-14T05:55:09.511Z,96923.81
2022-12-14T05:57:35.995Z,96913.50
2022-12-14T06:00:04.871Z,96916.97
2022-12-14T06:02:31.604Z,96920.25
2022-12-14T06:04:58.093Z,96907.50
2022-12-14T06:07:27.761Z,96904.41
2022-12-14T06:09:54.864Z,96910.41
2022-12-14T06:12:21.316Z,96904.00
2022-12-14T06:14:47.806Z,96899.97
2022-12-14T06:17:14.344Z,96904.22
2022-12-14T06:19:40.779Z,96903.94
2022-12-14T06:22:07.246Z,96900.09
2022-12-14T06:24:33.788Z,96905.00
2022-12-14T06:27:00.324Z,96903.38
2022-12-14T06:29:26.893Z,96903.31
2022-12-14T06:31:53.432Z,96897.38
2022-12-14T06:34:24.795Z,96892.50
2022-12-14T06:36:54.754Z,96892.28
2022-12-14T06:39:21.220Z,96900.22
2022-12-14T06:41:51.436Z,96892.09
2022-12-14T06:44:18.201Z,96888.50
2022-12-14T06:46:44.889Z,96891.31
2022-12-14T06:49:15.251Z,96892.91
2022-12-14T06:51:42.723Z,96894.53
2022-12-14T06:54:12.284Z,96905.41
2022-12-14T06:56:39.300Z,96895.38
2022-12-14T06:59:05.831Z,96904.44
2022-12-14T07:01:32.672Z,96897.28
2022-12-14T07:04:00.138Z,96905.13
2022-12-14T07:06:31.424Z,96906.53
2022-12-14T07:08:59.909Z,96901.06
2022-12-14T07:11:29.182Z,96896.34
2022-12-14T07:14:00.506Z,96901.28
2022-12-14T07:16:29.227Z,96905.19
2022-12-14T07:18:56.603Z,96900.72
2022-12-14T07:21:24.238Z,96911.81
2022-12-14T07:23:52.310Z,96907.06
2022-12-14T07:26:25.951Z,96901.63
2022-12-14T07:28:54.016Z,96900.44
2022-12-14T07:31:24.642Z,96902.00
2022-12-14T07:34:00.216Z,96904.97
2022-12-14T07:36:29.546Z,96907.34
2022-12-14T07:38:57.245Z,96911.66
2022-12-14T07:41:30.650Z,96911.59
2022-12-14T07:44:00.471Z,96910.63
2022-12-14T07:46:30.083Z,96913.34
2022-12-14T07:48:58.345Z,96914.53
2022-12-14T07:51:31.577Z,96918.91
2022-12-14T07:53:59.555Z,96921.50
2022-12-14T07:56:31.286Z,96921.56
2022-12-14T07:59:00.373Z,96925.78
2022-12-14T08:01:33.838Z,96922.69
2022-12-14T08:04:12.417Z,96924.16
2022-12-14T08:06:40.216Z,96926.84
2022-12-14T08:09:09.262Z,96941.53
2022-12-14T08:11:37.612Z,96937.41
2022-12-14T08:14:08.703Z,96939.09
2022-12-14T08:16:35.353Z,96936.97
2022-12-14T08:19:01.970Z,96941.38
2022-12-14T08:21:29.567Z,96943.91
2022-12-14T08:23:57.307Z,96940.84
2022-12-14T08:26:31.628Z,96947.81
2022-12-14T08:29:01.627Z,96942.38
2022-12-14T08:31:28.577Z,96936.63
2022-12-14T08:33:55.554Z,96944.84
2022-12-14T08:36:29.041Z,96939.69
2022-12-14T08:39:07.998Z,96933.69
2022-12-14T08:41:34.943Z,96936.22
2022-12-14T08:44:03.779Z,96935.31
2022-12-14T08:46:35.155Z,96937.56
2022-12-14T08:49:01.930Z,96927.97
2022-12-14T08:51:29.419Z,96927.97
2022-12-14T08:53:57.046Z,96930.63
2022-12-14T08:56:27.795Z,96932.25
2022-12-14T08:58:55.377Z,96939.69
2022-12-14T09:01:32.411Z,96945.88
2022-12-14T09:04:06.358Z,96945.56
2022-12-14T09:06:37.172Z,96937.47
2022-12-14T09:09:10.451Z,96949.75
2022-12-14T09:11:41.964Z,96944.50
2022-12-14T09:14:08.568Z,96948.25
2022-12-14T09:16:35.249Z,96959.38
2022-12-14T09:19:01.859Z,96948.25
2022-12-14T09:21:28.919Z,96954.91
2022-12-14T09:23:59.194Z,96959.78
2022-12-14T09:26:27.048Z,96950.09
2022-12-14T09:28:56.685Z,96949.31
2022-12-14T09:31:27.181Z,96951.97
2022-12-14T09:33:54.870Z,96948.34
2022-12-14T09:36:26.465Z,96945.97
2022-12-14T09:38:58.232Z,96945.03
2022-12-14T09:41:34.009Z,96948.28
2022-12-14T09:44:54.874Z,96944.84
2022-12-14T09:47:38.246Z,96951.56
2022-12-14T09:50:12.348Z,96950.22
2022-12-14T09:52:51.864Z,96949.06
2022-12-14T09:55:39.297Z,96936.78
2022-12-14T09:58:17.807Z,96936.09
2022-12-14T10:00:55.267Z,96924.38
2022-12-14T10:03:36.441Z,96925.91
2022-12-14T10:06:11.915Z,96935.50
2022-12-14T10:09:09.936Z,96927.44
2022-12-14T10:11:49.152Z,96925.16
2022-12-14T10:14:46.600Z,96930.94
2022-12-14T10:18:00.525Z,96924.31
2022-12-14T10:20:42.819Z,96932.75
2022-12-14T10:23:22.730Z,96926.22
2022-12-14T10:25:57.381Z,96926.59
2022-12-14T10:28:48.389Z,96921.13
2022-12-14T10:31:28.514Z,96919.59
2022-12-14T10:34:13.186Z,96922.03
2022-12-14T10:36:53.174Z,96931.53
2022-12-14T10:40:13.752Z,96928.69
2022-12-14T10:43:13.662Z,96927.03
2022-12-14T10:45:55.819Z,96912.84
2022-12-14T10:48:47.995Z,96917.84
2022-12-14T10:51:22.588Z,96909.34
2022-12-14T10:54:05.933Z,96917.22
2022-12-14T10:56:35.823Z,96917.06
2022-12-14T10:59:39.282Z,96918.28
2022-12-14T11:02:17.395Z,96910.72
2022-12-14T11:04:57.443Z,96913.31
2022-12-14T11:07:39.817Z,96916.78
2022-12-14T11:10:23.903Z,96911.31
2022-12-14T11:13:13.732Z,96909.53
2022-12-14T11:15:50.816Z,96914.56
2022-12-14T11:18:17.365Z,96909.97
2022-12-14T11:20:57.319Z,96899.19
2022-12-14T11:23:40.800Z,96889.16
2022-12-14T11:26:15.325Z,96888.50
2022-12-14T11:28:54.616Z,96882.81
2022-12-14T11:31:21.075Z,96883.50
2022-12-14T11:33:54.184Z,96888.78
2022-12-14T11:36:39.369Z,96888.84
2022-12-14T11:39:12.852Z,96887.34
2022-12-14T11:41:45.329Z,96886.59
2022-12-14T11:44:26.615Z,96885.16
2022-12-14T11:46:58.988Z,96882.91
2022-12-14T11:49:40.452Z,96874.72
2022-12-14T11:52:25.170Z,96886.19
2022-12-14T11:55:03.576Z,96882.50
2022-12-14T11:57:55.185Z,96876.13
2022-12-14T12:00:30.825Z,96882.56
2022-12-14T12:03:16.051Z,96882.91
2022-12-14T12:05:44.605Z,96882.13
2022-12-14T12:08:28.398Z,96878.94
2022-12-14T12:11:05.773Z,96879.50
2022-12-14T12:13:35.036Z,96881.47
2022-12-14T12:16:13.529Z,96872.81
2022-12-14T12:19:14.601Z,96873.28
2022-12-14T12:21:44.811Z,96866.94
2022-12-14T12:24:38.825Z,96868.53
2022-12-14T12:27:18.871Z,96864.31
2022-12-14T12:30:02.825Z,96872.41
2022-12-14T12:33:05.522Z,96863.41
2022-12-14T12:35:50.722Z,96870.06
2022-12-14T12:38:29.434Z,96866.47
2022-12-14T12:41:08.026Z,96861.72
2022-12-14T12:43:50.179Z,96866.16
2022-12-14T12:46:22.246Z,96863.59
2022-12-14T12:49:05.866Z,96858.84
2022-12-14T12:51:51.231Z,96864.13
2022-12-14T12:54:35.846Z,96861.25
2022-12-14T12:57:06.329Z,96863.25
2022-12-14T12:59:53.623Z,96866.53
2022-12-14T13:02:35.166Z,96859.75
2022-12-14T13:05:44.527Z,96860.75
2022-12-14T13:08:12.348Z,96864.50
2022-12-14T13:11:02.323Z,96864.72
2022-12-14T13:13:36.815Z,96867.03
2022-12-14T13:16:36.724Z,96867.59
2022-12-14T13:19:50.360Z,96852.47
2022-12-14T13:22:30.428Z,96853.84
2022-12-14T13:25:06.451Z,96857.47
2022-12-14T13:27:49.179Z,96857.47
2022-12-14T13:31:03.672Z,96860.53
2022-12-14T13:33:56.677Z,96864.44
2022-12-14T13:36:51.750Z,96869.59
2022-12-14T13:39:40.383Z,96870.63
2022-12-14T13:42:41.688Z,96868.22
2022-12-14T13:45:20.244Z,96872.91
2022-12-14T13:47:55.371Z,96885.13
2022-12-14T13:50:55.899Z,96888.63
2022-12-14T13:53:43.213Z,96888.28
2022-12-14T13:56:32.623Z,96893.31
2022-12-14T13:59:06.155Z,96897.41
2022-12-14T14:01:48.085Z,96892.78
2022-12-14T14:04:21.014Z,96892.56
2022-12-14T14:06:56.573Z,96901.06
2022-12-14T14:09:25.735Z,96908.44
2022-12-14T14:12:24.406Z,96910.53
2022-12-14T14:15:00.331Z,96916.56
2022-12-14T14:17:41.419Z,96905.03
2022-12-14T14:20:35.911Z,96903.38
2022-12-14T14:23:14.557Z,96907.13
2022-12-14T14:25:49.825Z,96902.19
2022-12-14T14:28:23.008Z,96910.16
2022-12-14T14:30:57.333Z,96910.66
2022-12-14T14:33:48.357Z,96920.38
2022-12-14T14:36:36.805Z,96914.28
2022-12-14T14:39:38.709Z,96920.53
2022-12-14T14:42:04.453Z,96925.94
2022-12-14T14:44:48.425Z,96919.81
2022-12-14T14:47:35.596Z,96914.53
2022-12-14T14:50:18.073Z,96919.88
2022-12-14T14:52:58.586Z,96918.09
2022-12-14T14:55:53.113Z,96928.56
2022-12-14T14:58:34.318Z,96927.63
2022-12-14T15:01:27.998Z,96936.34
2022-12-14T15:04:21.549Z,96934.91
2022-12-14T15:06:57.241Z,96948.47
2022-12-14T15:09:41.061Z,96944.19
2022-12-14T15:12:28.808Z,96951.06
2022-12-14T15:15:01.867Z,96953.97
2022-12-14T15:17:28.642Z,96954.13
2022-12-14T15:20:02.023Z,96961.59
2022-12-14T15:22:43.120Z,96962.75
2022-12-14T15:25:33.044Z,96964.69
2022-12-14T15:28:14.130Z,96967.47
2022-12-14T15:30:47.911Z,96974.56
2022-12-14T15:33:29.398Z,96972.44
2022-12-14T15:36:05.440Z,96989.00
2022-12-14T15:38:35.579Z,96984.44
2022-12-14T15:41:15.508Z,96994.63
2022-12-14T15:43:48.365Z,96988.72
2022-12-14T15:46:40.179Z,96985.28
2022-12-14T15:49:10.801Z,96994.34
2022-12-14T15:51:44.135Z,96993.59
2022-12-14T15:54:25.065Z,96994.69
2022-12-14T15:56:56.724Z,96996.66
2022-12-14T15:59:35.884Z,96998.59
2022-12-14T16:02:17.278Z,97009.16
2022-12-14T16:04:45.021Z,97013.59
2022-12-14T16:07:21.566Z,97013.81
2022-12-14T16:09:56.840Z,97021.13
2022-12-14T16:12:49.628Z,97025.38
2022-12-14T16:15:24.613Z,97020.28
2022-12-14T16:18:00.976Z,97021.78
2022-12-14T16:20:32.896Z,97024.06
2022-12-14T16:23:05.866Z,97024.53
2022-12-14T16:25:37.257Z,97029.47
2022-12-14T16:28:39.440Z,97036.22
2022-12-14T16:31:11.509Z,97041.25
2022-12-14T16:33:41.941Z,97044.78
2022-12-14T16:36:20.289Z,97042.19
2022-12-14T16:39:14.629Z,97046.53
2022-12-14T16:41:52.396Z,97041.88
2022-12-14T16:44:24.070Z,97048.44
2022-12-14T16:47:03.071Z,97039.44
2022-12-14T16:49:39.133Z,97045.06
2022-12-14T16:52:26.265Z,97043.72
2022-12-14T16:55:17.056Z,97050.56
2022-12-14T16:57:49.298Z,97054.53
2022-12-14T17:00:33.778Z,97054.28
2022-12-14T17:03:17.335Z,97039.34
2022-12-14T17:05:53.518Z,97057.25
2022-12-14T17:08:20.086Z,97050.44
2022-12-14T17:10:46.702Z,97051.72
2022-12-14T17:13:13.256Z,97062.59
2022-12-14T17:16:06.057Z,97061.75
2022-12-14T17:18:39.055Z,97067.56
2022-12-14T17:21:08.512Z,97076.16
2022-12-14T17:23:39.973Z,97078.34
2022-12-14T17:26:06.473Z,97077.00
2022-12-14T17:28:34.514Z,97067.41
2022-12-14T17:31:03.040Z,97069.78
2022-12-14T17:33:31.795Z,97078.63
2022-12-14T17:35:58.857Z,97081.50
2022-12-14T17:38:25.913Z,97077.66
2022-12-14T17:40:53.851Z,97082.84
2022-12-14T17:43:26.620Z,97091.25
2022-12-14T17:45:54.445Z,97094.72
2022-12-14T17:48:21.380Z,97095.41
2022-12-14T17:50:49.917Z,97092.69
2022-12-14T17:53:26.979Z,97087.34
2022-12-14T17:55:53.972Z,97089.09
2022-12-14T17:58:20.503Z,97089.78
2022-12-14T18:01:03.197Z,97093.06
2022-12-14T18:03:36.064Z,97089.63
2022-12-14T18:06:04.514Z,97091.94
2022-12-14T18:08:31.106Z,97093.69
2022-12-14T18:11:02.569Z,97093.75
2022-12-14T18:13:31.744Z,97097.94
2022-12-14T18:15:59.962Z,97096.75
2022-12-14T18:18:29.295Z,97098.25
2022-12-14T18:21:01.780Z,97103.06
2022-12-14T18:23:30.734Z,97104.19
2022-12-14T18:25:59.925Z,97096.78
2022-12-14T18:28:26.729Z,97101.91
2022-12-14T18:30:59.442Z,97108.00
2022-12-14T18:33:28.666Z,97120.56
2022-12-14T18:35:57.129Z,97125.09
2022-12-14T18:38:24.646Z,97124.88
2022-12-14T18:40:55.162Z,97130.84
2022-12-14T18:43:26.025Z,97126.81
2022-12-14T18:45:54.848Z,97137.56
2022-12-14T18:48:23.279Z,97137.91
2022-12-14T18:50:53.657Z,97139.06
2022-12-14T18:53:23.131Z,97141.81
2022-12-14T18:55:50.383Z,97147.75
2022-12-14T18:58:24.463Z,97141.78
2022-12-14T19:00:55.430Z,97139.66
2022-12-14T19:03:23.883Z,97144.69
2022-12-14T19:05:51.255Z,97154.13
2022-12-14T19:08:18.408Z,97157.97
2022-12-14T19:10:48.211Z,97158.50
2022-12-14T19:13:25.334Z,97160.56
2022-12-14T19:15:52.599Z,97169.38
2022-12-14T19:18:19.234Z,97160.56
2022-12-14T19:20:45.841Z,97166.59
2022-12-14T19:23:18.403Z,97166.38
2022-12-14T19:25:45.528Z,97166.81
2022-12-14T19:28:31.462Z,97165.66
2022-12-14T19:31:00.542Z,97167.06
2022-12-14T19:33:27.770Z,97170.09
2022-12-14T19:35:54.714Z,97167.13
2022-12-14T19:38:21.351Z,97170.63
2022-12-14T19:41:11.487Z,97163.91
2022-12-14T19:43:38.399Z,97168.97
2022-12-14T19:46:07.601Z,97171.59
2022-12-14T19:48:34.284Z,97177.47
2022-12-14T19:51:14.355Z,97176.66
2022-12-14T19:53:44.316Z,97181.00
2022-12-14T19:56:14.760Z,97187.00
2022-12-14T19:58:41.478Z,97188.28
2022-12-14T20:01:13.499Z,97202.09
2022-12-14T20:03:40.526Z,97194.47
2022-12-14T20:06:08.308Z,97194.38
2022-12-14T20:08:36.182Z,97201.78
2022-12-14T20:11:09.110Z,97206.81
2022-12-14T20:13:36.127Z,97203.44
2022-12-14T20:16:02.677Z,97209.41
2022-12-14T20:18:31.458Z,97201.75
2022-12-14T20:21:05.465Z,97203.97
2022-12-14T20:23:37.282Z,97210.38
2022-12-14T20:26:09.216Z,97218.13
2022-12-14T20:28:36.116Z,97213.09
2022-12-14T20:31:07.056Z,97214.53
2022-12-14T20:33:34.753Z,97220.50
2022-12-14T20:36:02.228Z,97219.28
2022-12-14T20:38:28.975Z,97222.25
2022-12-14T20:40:55.557Z,97218.75
2022-12-14T20:43:22.047Z,97226.81
2022-12-14T20:45:48.530Z,97231.47
2022-12-14T20:48:14.957Z,97234.97
2022-12-14T20:50:44.043Z,97237.56
2022-12-14T20:53:15.953Z,97237.22
2022-12-14T20:55:42.736Z,97239.88
2022-12-14T20:58:09.249Z,97241.28
2022-12-14T21:00:37.279Z,97239.31
2022-12-14T21:03:05.134Z,97251.22
2022-12-14T21:05:31.917Z,97248.47
2022-12-14T21:07:58.412Z,97255.34
2022-12-14T21:10:24.894Z,97258.63
2022-12-14T21:12:51.424Z,97261.84
2022-12-14T21:15:17.881Z,97263.03
2022-12-14T21:17:44.662Z,97270.19
2022-12-14T21:20:12.310Z,97274.53
2022-12-14T21:22:39.050Z,97271.47
2022-12-14T21:25:07.471Z,97263.63
2022-12-14T21:27:38.993Z,97262.69
2022-12-14T21:30:08.476Z,97275.47
2022-12-14T21:32:37.486Z,97263.63
2022-12-14T21:35:05.768Z,97267.97
2022-12-14T21:37:32.339Z,97268.34
2022-12-14T21:39:58.886Z,97274.31
2022-12-14T21:42:26.422Z,97273.25
2022-12-14T21:44:54.298Z,97265.34
2022-12-14T21:47:29.540Z,97271.97
2022-12-14T21:49:57.158Z,97270.94
2022-12-14T21:52:27.555Z,97272.22
2022-12-14T21:54:54.515Z,97273.63
2022-12-14T21:57:49.592Z,97272.03
2022-12-14T22:00:17.711Z,97277.09
2022-12-14T22:02:44.286Z,97278.72
2022-12-14T22:05:11.020Z,97285.91
2022-12-14T22:07:37.695Z,97278.97
2022-12-14T22:10:05.408Z,97276.00
2022-12-14T22:12:31.937Z,97272.91
2022-12-14T22:14:58.389Z,97269.63
2022-12-14T22:17:25.114Z,97273.53
2022-12-14T22:19:54.095Z,97277.56
2022-12-14T22:22:20.593Z,97275.25
2022-12-14T22:24:50.966Z,97275.41
2022-12-14T22:27:17.618Z,97279.53
2022-12-14T22:29:44.091Z,97277.94
2022-12-14T22:32:14.528Z,97285.47
2022-12-14T22:34:41.117Z,97293.13
2022-12-14T22:37:07.864Z,97286.97
2022-12-14T22:39:34.728Z,97290.47
2022-12-14T22:42:01.214Z,97286.91
2022-12-14T22:44:27.913Z,97292.44
2022-12-14T22:46:54.425Z,97293.22
2022-12-14T22:49:21.069Z,97286.19
2022-12-14T22:51:47.608Z,97294.91
2022-12-14T22:54:25.384Z,97299.50
2022-12-14T22:57:06.077Z,97299.06
2022-12-14T22:59:51.375Z,97306.31
2022-12-14T23:02:18.123Z,97307.22
2022-12-14T23:04:44.761Z,97309.47
2022-12-14T23:07:11.390Z,97303.50
2022-12-14T23:09:56.724Z,97295.84
2022-12-14T23:12:42.099Z,97303.00
2022-12-14T23:15:28.282Z,97293.91
2022-12-14T23:18:19.409Z,97291.34
2022-12-14T23:21:04.625Z,97304.47
2022-12-14T23:23:49.944Z,97304.75
2022-12-14T23:26:35.260Z,97303.22
2022-12-14T23:29:20.557Z,97307.66
2022-12-14T23:32:05.701Z,97305.59
2022-12-14T23:34:50.855Z,97298.59
2022-12-14T23:37:35.993Z,97315.44
2022-12-14T23:40:21.333Z,97313.22
2022-12-14T23:43:06.655Z,97314.09
2022-12-14T23:45:51.900Z,97322.09
2022-12-14T23:48:37.322Z,97329.84
2022-12-14T23:51:22.486Z,97321.13
2022-12-14T23:54:07.818Z,97315.06
2022-12-14T23:56:54.022Z,97320.22
2022-12-14T23:59:39.371Z,97313.91
